createdAt,value
2018-05-12T00:00:13.941Z,0
2018-05-12T00:01:15.333Z,0
2018-05-12T00:02:16.735Z,0
2018-05-12T00:03:18.165Z,0
2018-05-12T00:04:19.556Z,0
2018-05-12T00:05:20.929Z,0
2018-05-12T00:06:22.329Z,0
2018-05-12T00:07:23.725Z,0
2018-05-12T00:08:25.105Z,0
2018-05-12T00:09:26.520Z,0
2018-05-12T00:10:27.919Z,0
2018-05-12T00:11:29.310Z,0
2018-05-12T00:12:30.778Z,0
2018-05-12T00:13:32.112Z,0
2018-05-12T00:14:33.484Z,0
2018-05-12T00:15:34.870Z,0
2018-05-12T00:16:36.252Z,0
2018-05-12T00:17:37.628Z,0
2018-05-12T00:18:39.026Z,0
2018-05-12T00:19:40.431Z,0
2018-05-12T00:20:41.822Z,0
2018-05-12T00:21:43.201Z,0
2018-05-12T00:22:44.586Z,0
2018-05-12T00:23:45.975Z,0
2018-05-12T00:24:47.360Z,0
2018-05-12T00:25:48.755Z,0
2018-05-12T00:26:50.150Z,0
2018-05-12T00:27:51.567Z,0
2018-05-12T00:28:53.621Z,0
2018-05-12T00:29:55.001Z,0
2018-05-12T00:30:56.367Z,0
2018-05-12T00:31:57.761Z,0
2018-05-12T00:32:59.174Z,0
2018-05-12T00:34:00.568Z,0
2018-05-12T00:35:01.970Z,0
2018-05-12T00:36:03.361Z,0
2018-05-12T00:37:04.754Z,0
2018-05-12T00:38:06.153Z,0
2018-05-12T00:39:07.562Z,0
2018-05-12T00:40:08.953Z,0
2018-05-12T00:41:10.343Z,0
2018-05-12T00:42:11.741Z,0
2018-05-12T00:43:13.124Z,0
2018-05-12T00:44:14.518Z,0
2018-05-12T00:45:15.890Z,0
2018-05-12T00:46:17.290Z,0
2018-05-12T00:47:18.674Z,0
2018-05-12T00:48:20.069Z,0
2018-05-12T00:49:21.470Z,0
2018-05-12T00:50:22.873Z,0
2018-05-12T00:51:24.275Z,0
2018-05-12T00:52:25.668Z,0
2018-05-12T00:53:27.057Z,0
2018-05-12T00:54:28.456Z,0
2018-05-12T00:55:29.822Z,0
2018-05-12T00:56:31.208Z,0
2018-05-12T00:57:32.591Z,0
2018-05-12T00:58:33.975Z,0
2018-05-12T00:59:35.350Z,0
2018-05-12T01:00:36.723Z,0
2018-05-12T01:01:38.115Z,0
2018-05-12T01:02:39.508Z,0
2018-05-12T01:03:40.911Z,0
2018-05-12T01:04:42.309Z,0
2018-05-12T01:05:43.701Z,0
2018-05-12T01:06:45.112Z,0
2018-05-12T01:07:46.488Z,0
2018-05-12T01:08:47.879Z,0
2018-05-12T01:09:49.274Z,0
2018-05-12T01:10:50.676Z,0
2018-05-12T01:11:52.059Z,0
2018-05-12T01:12:53.445Z,0
2018-05-12T01:13:54.834Z,0
2018-05-12T01:14:56.232Z,0
2018-05-12T01:15:57.621Z,0
2018-05-12T01:16:58.998Z,0
2018-05-12T01:18:00.485Z,0
2018-05-12T01:19:01.867Z,0
2018-05-12T01:20:03.261Z,0
2018-05-12T01:21:04.663Z,0
2018-05-12T01:22:06.046Z,0
2018-05-12T01:23:07.437Z,0
2018-05-12T01:24:08.819Z,0
2018-05-12T01:25:10.199Z,0
2018-05-12T01:26:11.573Z,0
2018-05-12T01:27:13.625Z,0
2018-05-12T01:28:15.009Z,0
2018-05-12T01:29:16.396Z,0
2018-05-12T01:30:17.770Z,0
2018-05-12T01:31:19.171Z,0
2018-05-12T01:32:20.558Z,0
2018-05-12T01:33:21.941Z,0
2018-05-12T01:34:23.326Z,0
2018-05-12T01:35:24.708Z,0
2018-05-12T01:36:26.097Z,0
2018-05-12T01:37:27.474Z,0
2018-05-12T01:38:28.855Z,0
2018-05-12T01:39:30.268Z,0
2018-05-12T01:40:31.652Z,0
2018-05-12T01:41:33.044Z,0
2018-05-12T01:42:35.235Z,0
2018-05-12T01:43:36.611Z,0
2018-05-12T01:44:37.987Z,0
2018-05-12T01:45:39.374Z,0
2018-05-12T01:46:40.760Z,0
2018-05-12T01:47:42.136Z,0
2018-05-12T01:48:43.882Z,0
2018-05-12T01:49:45.271Z,0
2018-05-12T01:50:46.649Z,0
2018-05-12T01:51:48.055Z,0
2018-05-12T01:52:49.445Z,0
2018-05-12T01:53:50.865Z,0
2018-05-12T01:54:52.205Z,0
2018-05-12T01:55:53.594Z,0
2018-05-12T01:56:54.995Z,0
2018-05-12T01:57:56.492Z,0
2018-05-12T01:58:57.780Z,0
2018-05-12T01:59:59.161Z,0
2018-05-12T02:01:00.543Z,0
2018-05-12T02:02:01.937Z,0
2018-05-12T02:03:03.311Z,0
2018-05-12T02:04:04.699Z,0
2018-05-12T02:05:06.082Z,0
2018-05-12T02:06:07.472Z,0
2018-05-12T02:07:08.838Z,0
2018-05-12T02:08:10.225Z,0
2018-05-12T02:09:11.607Z,0
2018-05-12T02:10:12.986Z,0
2018-05-12T02:11:14.380Z,0
2018-05-12T02:12:15.769Z,0
2018-05-12T02:13:17.146Z,0
2018-05-12T02:14:18.539Z,0
2018-05-12T02:15:20.135Z,0
2018-05-12T02:16:21.498Z,0
2018-05-12T02:17:22.882Z,0
2018-05-12T02:18:24.260Z,0
2018-05-12T02:19:25.643Z,0
2018-05-12T02:20:27.031Z,0
2018-05-12T02:21:28.402Z,0
2018-05-12T02:22:29.777Z,0
2018-05-12T02:23:31.714Z,0
2018-05-12T02:24:33.095Z,0
2018-05-12T02:25:35.236Z,0
2018-05-12T02:26:36.619Z,0
2018-05-12T02:27:37.999Z,0
2018-05-12T02:28:39.381Z,0
2018-05-12T02:29:40.764Z,0
2018-05-12T02:30:42.148Z,0
2018-05-12T02:31:43.532Z,0
2018-05-12T02:32:44.919Z,0
2018-05-12T02:33:46.294Z,0
2018-05-12T02:34:47.682Z,0
2018-05-12T02:35:49.069Z,0
2018-05-12T02:36:50.448Z,0
2018-05-12T02:37:51.834Z,0
2018-05-12T02:38:53.212Z,0
2018-05-12T02:39:54.600Z,0
2018-05-12T02:40:55.970Z,0
2018-05-12T02:41:57.362Z,0
2018-05-12T02:42:58.746Z,0
2018-05-12T02:44:00.126Z,0
2018-05-12T02:45:01.519Z,0
2018-05-12T02:46:02.896Z,0
2018-05-12T02:47:04.275Z,0
2018-05-12T02:48:05.670Z,0
2018-05-12T02:49:07.049Z,0
2018-05-12T02:50:08.440Z,0
2018-05-12T02:51:09.821Z,0
2018-05-12T02:52:11.203Z,0
2018-05-12T02:53:12.580Z,0
2018-05-12T02:54:13.972Z,0
2018-05-12T02:55:15.349Z,0
2018-05-12T02:56:16.731Z,0
2018-05-12T02:57:18.109Z,0
2018-05-12T02:58:19.500Z,0
2018-05-12T02:59:20.892Z,0
2018-05-12T03:00:22.267Z,0
2018-05-12T03:01:23.656Z,0
2018-05-12T03:02:25.044Z,0
2018-05-12T03:03:26.436Z,0
2018-05-12T03:04:27.815Z,0
2018-05-12T03:05:29.196Z,0
2018-05-12T03:06:30.580Z,0
2018-05-12T03:07:31.957Z,0
2018-05-12T03:08:33.354Z,0
2018-05-12T03:09:34.731Z,0
2018-05-12T03:10:36.118Z,0
2018-05-12T03:11:37.515Z,0
2018-05-12T03:12:38.898Z,0
2018-05-12T03:13:40.279Z,0
2018-05-12T03:14:41.669Z,0
2018-05-12T03:15:43.053Z,0
2018-05-12T03:16:44.443Z,0
2018-05-12T03:17:45.841Z,0
2018-05-12T03:18:47.234Z,0
2018-05-12T03:19:48.625Z,0
2018-05-12T03:20:50.009Z,5
2018-05-12T03:21:51.406Z,5
2018-05-12T03:22:52.796Z,5
2018-05-12T03:23:54.185Z,5
2018-05-12T03:24:55.575Z,5
2018-05-12T03:25:56.951Z,5
2018-05-12T03:26:58.336Z,5
2018-05-12T03:27:59.728Z,5
2018-05-12T03:29:01.117Z,5
2018-05-12T03:30:02.514Z,5
2018-05-12T03:31:03.956Z,5
2018-05-12T03:32:05.342Z,5
2018-05-12T03:33:06.722Z,5
2018-05-12T03:34:08.102Z,5
2018-05-12T03:35:09.483Z,5
2018-05-12T03:36:10.855Z,5
2018-05-12T03:37:12.250Z,5
2018-05-12T03:38:13.628Z,5
2018-05-12T03:39:15.014Z,5
2018-05-12T03:40:16.404Z,5
2018-05-12T03:41:17.784Z,5
2018-05-12T03:42:19.168Z,5
2018-05-12T03:43:20.559Z,5
2018-05-12T03:44:21.931Z,5
2018-05-12T03:45:23.321Z,5
2018-05-12T03:46:24.699Z,5
2018-05-12T03:47:26.092Z,5
2018-05-12T03:48:27.477Z,5
2018-05-12T03:49:28.855Z,5
2018-05-12T03:50:30.245Z,5
2018-05-12T03:51:31.624Z,5
2018-05-12T03:52:33.013Z,10
2018-05-12T03:53:34.400Z,10
2018-05-12T03:54:35.779Z,10
2018-05-12T03:55:37.173Z,10
2018-05-12T03:56:38.547Z,10
2018-05-12T03:57:39.939Z,10
2018-05-12T03:58:41.338Z,10
2018-05-12T03:59:42.720Z,10
2018-05-12T04:00:44.104Z,10
2018-05-12T04:01:45.489Z,10
2018-05-12T04:02:46.876Z,15
2018-05-12T04:03:48.261Z,15
2018-05-12T04:04:49.647Z,15
2018-05-12T04:05:51.048Z,15
2018-05-12T04:06:52.428Z,15
2018-05-12T04:07:53.818Z,15
2018-05-12T04:08:55.198Z,15
2018-05-12T04:09:56.588Z,20
2018-05-12T04:10:57.976Z,20
2018-05-12T04:11:59.472Z,20
2018-05-12T04:13:00.730Z,20
2018-05-12T04:14:02.118Z,20
2018-05-12T04:15:03.499Z,20
2018-05-12T04:16:04.893Z,20
2018-05-12T04:17:06.281Z,20
2018-05-12T04:18:07.672Z,20
2018-05-12T04:19:09.063Z,20
2018-05-12T04:20:10.457Z,20
2018-05-12T04:21:11.833Z,20
2018-05-12T04:22:13.235Z,20
2018-05-12T04:23:14.685Z,20
2018-05-12T04:24:16.077Z,20
2018-05-12T04:25:17.546Z,20
2018-05-12T04:26:18.847Z,20
2018-05-12T04:27:20.896Z,20
2018-05-12T04:28:22.274Z,20
2018-05-12T04:29:23.666Z,15
2018-05-12T04:30:25.046Z,15
2018-05-12T04:31:26.526Z,15
2018-05-12T04:32:27.774Z,15
2018-05-12T04:33:29.164Z,15
2018-05-12T04:34:30.552Z,20
2018-05-12T04:35:31.940Z,20
2018-05-12T04:36:33.324Z,20
2018-05-12T04:37:34.714Z,20
2018-05-12T04:38:36.096Z,20
2018-05-12T04:39:37.474Z,20
2018-05-12T04:40:38.856Z,20
2018-05-12T04:41:40.246Z,20
2018-05-12T04:42:41.627Z,20
2018-05-12T04:43:43.023Z,25
2018-05-12T04:44:44.408Z,25
2018-05-12T04:45:45.793Z,25
2018-05-12T04:46:47.188Z,25
2018-05-12T04:47:48.562Z,25
2018-05-12T04:48:49.949Z,25
2018-05-12T04:49:51.335Z,25
2018-05-12T04:50:52.721Z,25
2018-05-12T04:51:54.099Z,30
2018-05-12T04:52:55.498Z,30
2018-05-12T04:53:56.883Z,30
2018-05-12T04:54:58.276Z,30
2018-05-12T04:55:59.679Z,30
2018-05-12T04:57:01.069Z,30
2018-05-12T04:58:02.460Z,35
2018-05-12T04:59:03.844Z,35
2018-05-12T05:00:05.228Z,35
2018-05-12T05:01:06.624Z,30
2018-05-12T05:02:08.772Z,30
2018-05-12T05:03:10.146Z,35
2018-05-12T05:04:11.543Z,35
2018-05-12T05:05:12.931Z,35
2018-05-12T05:06:14.331Z,40
2018-05-12T05:07:15.719Z,40
2018-05-12T05:08:17.115Z,45
2018-05-12T05:09:18.483Z,45
2018-05-12T05:10:19.878Z,45
2018-05-12T05:11:21.267Z,45
2018-05-12T05:12:22.727Z,45
2018-05-12T05:13:24.049Z,45
2018-05-12T05:14:25.446Z,45
2018-05-12T05:15:26.834Z,45
2018-05-12T05:16:28.225Z,45
2018-05-12T05:17:29.609Z,45
2018-05-12T05:18:30.993Z,45
2018-05-12T05:19:32.379Z,45
2018-05-12T05:20:33.770Z,45
2018-05-12T05:21:35.168Z,45
2018-05-12T05:22:36.560Z,45
2018-05-12T05:23:37.950Z,45
2018-05-12T05:24:39.338Z,50
2018-05-12T05:25:40.726Z,55
2018-05-12T05:26:42.122Z,55
2018-05-12T05:27:43.498Z,55
2018-05-12T05:28:44.886Z,60
2018-05-12T05:29:46.282Z,70
2018-05-12T05:30:48.282Z,65
2018-05-12T05:31:49.668Z,65
2018-05-12T05:32:51.056Z,65
2018-05-12T05:33:52.510Z,65
2018-05-12T05:34:53.837Z,60
2018-05-12T05:35:55.227Z,65
2018-05-12T05:36:56.614Z,65
2018-05-12T05:37:57.999Z,70
2018-05-12T05:38:59.391Z,70
2018-05-12T05:40:00.769Z,75
2018-05-12T05:41:02.164Z,75
2018-05-12T05:42:03.548Z,75
2018-05-12T05:43:04.948Z,80
2018-05-12T05:44:06.344Z,80
2018-05-12T05:45:07.737Z,85
2018-05-12T05:46:09.135Z,85
2018-05-12T05:47:10.532Z,80
2018-05-12T05:48:11.920Z,105
2018-05-12T05:49:13.312Z,110
2018-05-12T05:50:14.744Z,100
2018-05-12T05:51:16.090Z,95
2018-05-12T05:52:17.486Z,90
2018-05-12T05:53:18.881Z,90
2018-05-12T05:54:20.264Z,85
2018-05-12T05:55:21.676Z,85
2018-05-12T05:56:23.054Z,85
2018-05-12T05:57:24.484Z,80
2018-05-12T05:58:25.847Z,80
2018-05-12T05:59:27.253Z,80
2018-05-12T06:00:28.654Z,80
2018-05-12T06:01:30.038Z,75
2018-05-12T06:02:31.445Z,75
2018-05-12T06:03:32.830Z,75
2018-05-12T06:04:34.229Z,70
2018-05-12T06:05:35.622Z,70
2018-05-12T06:06:37.027Z,70
2018-05-12T06:07:38.424Z,70
2018-05-12T06:08:40.604Z,70
2018-05-12T06:09:42.037Z,70
2018-05-12T06:10:43.383Z,65
2018-05-12T06:11:44.777Z,65
2018-05-12T06:12:46.173Z,65
2018-05-12T06:13:47.579Z,65
2018-05-12T06:14:48.966Z,60
2018-05-12T06:15:50.355Z,60
2018-05-12T06:16:51.739Z,60
2018-05-12T06:17:53.144Z,55
2018-05-12T06:18:54.536Z,55
2018-05-12T06:19:55.925Z,60
2018-05-12T06:20:57.318Z,65
2018-05-12T06:21:58.712Z,70
2018-05-12T06:23:00.104Z,70
2018-05-12T06:24:01.506Z,80
2018-05-12T06:25:02.891Z,80
2018-05-12T06:26:04.305Z,80
2018-05-12T06:27:05.695Z,80
2018-05-12T06:28:07.064Z,85
2018-05-12T06:29:08.469Z,90
2018-05-12T06:30:09.857Z,85
2018-05-12T06:31:11.251Z,85
2018-05-12T06:32:12.647Z,85
2018-05-12T06:33:14.035Z,85
2018-05-12T06:34:15.432Z,85
2018-05-12T06:35:16.833Z,95
2018-05-12T06:36:18.246Z,95
2018-05-12T06:37:19.628Z,95
2018-05-12T06:38:21.044Z,100
2018-05-12T06:39:22.451Z,100
2018-05-12T06:40:23.848Z,105
2018-05-12T06:41:25.255Z,100
2018-05-12T06:42:26.661Z,100
2018-05-12T06:43:28.058Z,95
2018-05-12T06:44:29.462Z,95
2018-05-12T06:45:30.873Z,100
2018-05-12T06:46:32.264Z,100
2018-05-12T06:47:33.706Z,100
2018-05-12T06:48:35.092Z,105
2018-05-12T06:49:36.496Z,105
2018-05-12T06:50:37.904Z,100
2018-05-12T06:51:39.312Z,100
2018-05-12T06:52:40.783Z,100
2018-05-12T06:53:42.129Z,100
2018-05-12T06:54:43.498Z,100
2018-05-12T06:55:44.911Z,100
2018-05-12T06:56:46.302Z,95
2018-05-12T06:57:47.689Z,80
2018-05-12T06:58:49.083Z,85
2018-05-12T06:59:50.484Z,85
2018-05-12T07:00:51.867Z,80
2018-05-12T07:01:53.250Z,80
2018-05-12T07:02:54.642Z,80
2018-05-12T07:03:56.034Z,80
2018-05-12T07:04:57.427Z,80
2018-05-12T07:05:59.657Z,80
2018-05-12T07:07:01.052Z,85
2018-05-12T07:08:02.444Z,85
2018-05-12T07:09:03.844Z,80
2018-05-12T07:10:05.228Z,80
2018-05-12T07:11:06.625Z,80
2018-05-12T07:12:08.005Z,85
2018-05-12T07:13:09.392Z,85
2018-05-12T07:14:10.788Z,85
2018-05-12T07:15:12.187Z,90
2018-05-12T07:16:13.568Z,90
2018-05-12T07:17:14.970Z,95
2018-05-12T07:18:16.374Z,100
2018-05-12T07:19:17.811Z,115
2018-05-12T07:20:19.179Z,125
2018-05-12T07:21:20.588Z,155
2018-05-12T07:22:21.975Z,245
2018-05-12T07:23:23.375Z,520
2018-05-12T07:24:24.778Z,915
2018-05-12T07:25:26.181Z,605
2018-05-12T07:26:27.576Z,1025
2018-05-12T07:27:28.975Z,695
2018-05-12T07:28:30.379Z,410
2018-05-12T07:29:31.779Z,305
2018-05-12T07:30:33.178Z,275
2018-05-12T07:31:34.588Z,270
2018-05-12T07:32:35.978Z,260
2018-05-12T07:33:37.383Z,255
2018-05-12T07:34:38.775Z,255
2018-05-12T07:35:40.182Z,200
2018-05-12T07:36:41.592Z,180
2018-05-12T07:37:42.994Z,185
2018-05-12T07:38:44.432Z,170
2018-05-12T07:39:45.820Z,165
2018-05-12T07:40:47.210Z,165
2018-05-12T07:41:48.620Z,145
2018-05-12T07:42:50.013Z,135
2018-05-12T07:43:51.409Z,125
2018-05-12T07:44:52.827Z,120
2018-05-12T07:45:54.216Z,115
2018-05-12T07:46:55.616Z,120
2018-05-12T07:47:57.009Z,115
2018-05-12T07:48:58.413Z,115
2018-05-12T07:49:59.814Z,120
2018-05-12T07:51:01.237Z,115
2018-05-12T07:52:02.619Z,105
2018-05-12T07:53:04.021Z,115
2018-05-12T07:54:05.432Z,120
2018-05-12T07:55:06.836Z,120
2018-05-12T07:56:08.228Z,115
2018-05-12T07:57:09.631Z,105
2018-05-12T07:58:11.037Z,100
2018-05-12T07:59:12.423Z,95
2018-05-12T08:00:13.820Z,90
2018-05-12T08:01:15.203Z,85
2018-05-12T08:02:16.612Z,85
2018-05-12T08:03:17.995Z,80
2018-05-12T08:04:19.397Z,80
2018-05-12T08:05:20.776Z,85
2018-05-12T08:06:22.179Z,85
2018-05-12T08:07:23.590Z,80
2018-05-12T08:08:24.979Z,70
2018-05-12T08:09:26.374Z,75
2018-05-12T08:10:27.783Z,75
2018-05-12T08:11:29.186Z,80
2018-05-12T08:12:30.583Z,85
2018-05-12T08:13:31.980Z,90
2018-05-12T08:14:33.377Z,100
2018-05-12T08:15:34.772Z,110
2018-05-12T08:16:36.186Z,115
2018-05-12T08:17:37.590Z,115
2018-05-12T08:18:38.996Z,115
2018-05-12T08:19:40.409Z,135
2018-05-12T08:20:41.803Z,160
2018-05-12T08:21:43.207Z,195
2018-05-12T08:22:44.603Z,215
2018-05-12T08:23:45.997Z,220
2018-05-12T08:24:47.391Z,200
2018-05-12T08:25:48.803Z,180
2018-05-12T08:26:50.199Z,190
2018-05-12T08:27:51.588Z,210
2018-05-12T08:28:52.992Z,265
2018-05-12T08:29:54.391Z,415
2018-05-12T08:30:55.797Z,330
2018-05-12T08:31:57.204Z,350
2018-05-12T08:32:58.590Z,295
2018-05-12T08:34:00.003Z,350
2018-05-12T08:35:01.392Z,1260
2018-05-12T08:36:02.793Z,1355
2018-05-12T08:37:04.189Z,285
2018-05-12T08:38:05.585Z,225
2018-05-12T08:39:06.988Z,200
2018-05-12T08:40:08.385Z,185
2018-05-12T08:41:09.787Z,175
2018-05-12T08:42:11.180Z,150
2018-05-12T08:43:12.586Z,120
2018-05-12T08:44:13.990Z,105
2018-05-12T08:45:15.386Z,105
2018-05-12T08:46:16.800Z,105
2018-05-12T08:47:18.182Z,100
2018-05-12T08:48:19.596Z,95
2018-05-12T08:49:20.983Z,95
2018-05-12T08:50:22.382Z,100
2018-05-12T08:51:23.778Z,110
2018-05-12T08:52:25.170Z,115
2018-05-12T08:53:26.573Z,125
2018-05-12T08:54:27.972Z,145
2018-05-12T08:55:29.363Z,195
2018-05-12T08:56:30.757Z,215
2018-05-12T08:57:32.158Z,210
2018-05-12T08:58:33.553Z,205
2018-05-12T08:59:34.950Z,205
2018-05-12T09:00:36.348Z,220
2018-05-12T09:01:37.740Z,280
2018-05-12T09:02:39.143Z,375
2018-05-12T09:03:40.553Z,440
2018-05-12T09:04:41.936Z,460
2018-05-12T09:05:43.341Z,455
2018-05-12T09:06:45.380Z,430
2018-05-12T09:07:46.779Z,430
2018-05-12T09:08:48.183Z,495
2018-05-12T09:09:49.596Z,845
2018-05-12T09:10:51.000Z,1450
2018-05-12T09:11:52.407Z,860
2018-05-12T09:12:53.822Z,765
2018-05-12T09:13:55.197Z,820
2018-05-12T09:14:56.595Z,1155
2018-05-12T09:15:58.006Z,1485
2018-05-12T09:16:59.402Z,1645
2018-05-12T09:18:01.307Z,1600
2018-05-12T09:19:02.711Z,1540
2018-05-12T09:20:04.191Z,1395
2018-05-12T09:21:05.607Z,1345
2018-05-12T09:22:07.020Z,1285
2018-05-12T09:23:08.420Z,1395
2018-05-12T09:24:09.826Z,1125
2018-05-12T09:25:11.233Z,145
2018-05-12T09:26:12.621Z,125
2018-05-12T09:27:14.026Z,140
2018-05-12T09:28:15.428Z,130
2018-05-12T09:29:16.829Z,140
2018-05-12T09:30:18.237Z,130
2018-05-12T09:31:19.634Z,135
2018-05-12T09:32:21.046Z,175
2018-05-12T09:33:22.440Z,160
2018-05-12T09:34:23.842Z,145
2018-05-12T09:35:25.257Z,115
2018-05-12T09:36:26.658Z,110
2018-05-12T09:37:28.063Z,105
2018-05-12T09:38:29.471Z,105
2018-05-12T09:39:30.871Z,110
2018-05-12T09:40:32.277Z,110
2018-05-12T09:41:33.706Z,110
2018-05-12T09:42:35.172Z,105
2018-05-12T09:43:36.485Z,95
2018-05-12T09:44:37.881Z,85
2018-05-12T09:45:39.281Z,80
2018-05-12T09:46:40.690Z,80
2018-05-12T09:47:42.085Z,85
2018-05-12T09:48:43.484Z,90
2018-05-12T09:49:44.892Z,90
2018-05-12T09:50:46.290Z,90
2018-05-12T09:51:47.690Z,90
2018-05-12T09:52:49.101Z,90
2018-05-12T09:53:50.504Z,90
2018-05-12T09:54:51.900Z,100
2018-05-12T09:55:53.308Z,105
2018-05-12T09:56:54.790Z,110
2018-05-12T09:57:56.189Z,105
2018-05-12T09:58:57.578Z,110
2018-05-12T09:59:58.990Z,115
2018-05-12T10:01:00.399Z,125
2018-05-12T10:02:01.808Z,130
2018-05-12T10:03:03.179Z,140
2018-05-12T10:04:04.589Z,155
2018-05-12T10:05:06.007Z,195
2018-05-12T10:06:07.413Z,205
2018-05-12T10:07:08.817Z,200
2018-05-12T10:08:10.218Z,205
2018-05-12T10:09:11.632Z,185
2018-05-12T10:10:13.034Z,160
2018-05-12T10:11:14.427Z,150
2018-05-12T10:12:15.835Z,150
2018-05-12T10:13:17.254Z,155
2018-05-12T10:14:18.684Z,150
2018-05-12T10:15:20.112Z,150
2018-05-12T10:16:21.456Z,150
2018-05-12T10:17:22.861Z,140
2018-05-12T10:18:24.260Z,145
2018-05-12T10:19:25.664Z,160
2018-05-12T10:20:27.056Z,175
2018-05-12T10:21:28.461Z,175
2018-05-12T10:22:29.893Z,180
2018-05-12T10:23:31.308Z,225
2018-05-12T10:24:32.679Z,230
2018-05-12T10:25:34.076Z,235
2018-05-12T10:26:35.472Z,235
2018-05-12T10:27:36.873Z,255
2018-05-12T10:28:38.281Z,260
2018-05-12T10:29:39.684Z,295
2018-05-12T10:30:41.099Z,310
2018-05-12T10:31:42.493Z,295
2018-05-12T10:32:43.904Z,285
2018-05-12T10:33:45.972Z,280
2018-05-12T10:34:47.374Z,285
2018-05-12T10:35:48.766Z,280
2018-05-12T10:36:50.162Z,255
2018-05-12T10:37:51.573Z,260
2018-05-12T10:38:53.017Z,275
2018-05-12T10:39:54.414Z,295
2018-05-12T10:40:55.816Z,300
2018-05-12T10:41:57.217Z,285
2018-05-12T10:42:58.619Z,275
2018-05-12T10:44:00.027Z,270
2018-05-12T10:45:01.441Z,270
2018-05-12T10:46:02.839Z,270
2018-05-12T10:47:04.239Z,255
2018-05-12T10:48:05.644Z,255
2018-05-12T10:49:07.780Z,250
2018-05-12T10:50:09.190Z,240
2018-05-12T10:51:10.601Z,190
2018-05-12T10:52:11.996Z,175
2018-05-12T10:53:13.402Z,195
2018-05-12T10:54:14.797Z,290
2018-05-12T10:55:16.208Z,310
2018-05-12T10:56:17.599Z,390
2018-05-12T10:57:18.989Z,325
2018-05-12T10:58:20.404Z,340
2018-05-12T10:59:21.810Z,360
2018-05-12T11:00:23.215Z,400
2018-05-12T11:01:24.615Z,370
2018-05-12T11:02:26.032Z,335
2018-05-12T11:03:27.430Z,315
2018-05-12T11:04:28.823Z,335
2018-05-12T11:05:30.231Z,365
2018-05-12T11:06:31.634Z,295
2018-05-12T11:07:33.038Z,360
2018-05-12T11:08:34.443Z,190
2018-05-12T11:09:35.902Z,155
2018-05-12T11:10:37.248Z,155
2018-05-12T11:11:38.655Z,175
2018-05-12T11:12:40.087Z,230
2018-05-12T11:13:41.496Z,995
2018-05-12T11:14:43.723Z,1740
2018-05-12T11:15:45.119Z,1410
2018-05-12T11:16:46.518Z,1695
2018-05-12T11:17:47.929Z,1755
2018-05-12T11:18:49.320Z,1785
2018-05-12T11:19:50.728Z,790
2018-05-12T11:20:52.132Z,1745
2018-05-12T11:21:53.647Z,1350
2018-05-12T11:22:54.914Z,275
2018-05-12T11:23:56.321Z,255
2018-05-12T11:24:57.725Z,260
2018-05-12T11:25:59.130Z,270
2018-05-12T11:27:00.536Z,280
2018-05-12T11:28:01.955Z,1515
2018-05-12T11:29:03.365Z,1660
2018-05-12T11:30:04.756Z,1725
2018-05-12T11:31:06.158Z,755
2018-05-12T11:32:07.571Z,1700
2018-05-12T11:33:08.966Z,1675
2018-05-12T11:34:10.357Z,1710
2018-05-12T11:35:11.790Z,1660
2018-05-12T11:36:14.172Z,760
2018-05-12T11:37:15.572Z,1000
2018-05-12T11:38:16.973Z,1620
2018-05-12T11:39:18.474Z,860
2018-05-12T11:40:19.749Z,475
2018-05-12T11:41:21.157Z,825
2018-05-12T11:42:22.561Z,1480
2018-05-12T11:43:23.985Z,1330
2018-05-12T11:44:25.477Z,1150
2018-05-12T11:45:26.749Z,375
2018-05-12T11:46:28.153Z,200
2018-05-12T11:47:29.559Z,160
2018-05-12T11:48:30.961Z,185
2018-05-12T11:49:32.375Z,985
2018-05-12T11:50:33.784Z,185
2018-05-12T11:51:35.190Z,160
2018-05-12T11:52:36.594Z,155
2018-05-12T11:53:38.004Z,160
2018-05-12T11:54:39.399Z,155
2018-05-12T11:55:40.803Z,165
2018-05-12T11:56:42.237Z,160
2018-05-12T11:57:43.652Z,225
2018-05-12T11:58:45.034Z,395
2018-05-12T11:59:46.440Z,150
2018-05-12T12:00:47.837Z,135
2018-05-12T12:01:49.774Z,135
2018-05-12T12:02:51.215Z,140
2018-05-12T12:03:52.756Z,185
2018-05-12T12:04:54.031Z,165
2018-05-12T12:05:55.417Z,165
2018-05-12T12:06:56.837Z,205
2018-05-12T12:07:58.237Z,1280
2018-05-12T12:08:59.635Z,410
2018-05-12T12:10:01.039Z,240
2018-05-12T12:11:02.438Z,245
2018-05-12T12:12:03.843Z,765
2018-05-12T12:13:05.238Z,240
2018-05-12T12:14:06.644Z,200
2018-05-12T12:15:08.048Z,270
2018-05-12T12:16:09.454Z,125
2018-05-12T12:17:10.857Z,120
2018-05-12T12:18:12.246Z,125
2018-05-12T12:19:13.646Z,130
2018-05-12T12:20:15.042Z,170
2018-05-12T12:21:16.440Z,170
2018-05-12T12:22:17.853Z,185
2018-05-12T12:23:19.236Z,230
2018-05-12T12:24:20.632Z,150
2018-05-12T12:25:22.040Z,135
2018-05-12T12:26:23.432Z,165
2018-05-12T12:27:24.830Z,190
2018-05-12T12:28:26.241Z,175
2018-05-12T12:29:27.637Z,200
2018-05-12T12:30:29.052Z,250
2018-05-12T12:31:30.445Z,265
2018-05-12T12:32:31.853Z,350
2018-05-12T12:33:33.254Z,935
2018-05-12T12:34:34.667Z,640
2018-05-12T12:35:36.057Z,820
2018-05-12T12:36:37.449Z,530
2018-05-12T12:37:38.853Z,700
2018-05-12T12:38:40.257Z,1265
2018-05-12T12:39:41.658Z,1235
2018-05-12T12:40:43.048Z,1090
2018-05-12T12:41:44.452Z,465
2018-05-12T12:42:45.853Z,215
2018-05-12T12:43:47.239Z,205
2018-05-12T12:44:48.649Z,200
2018-05-12T12:45:50.044Z,205
2018-05-12T12:46:51.450Z,200
2018-05-12T12:47:52.851Z,190
2018-05-12T12:48:54.259Z,190
2018-05-12T12:49:55.652Z,200
2018-05-12T12:50:57.057Z,190
2018-05-12T12:51:58.453Z,180
2018-05-12T12:52:59.851Z,185
2018-05-12T12:54:01.249Z,190
2018-05-12T12:55:02.636Z,200
2018-05-12T12:56:04.041Z,215
2018-05-12T12:57:05.444Z,195
2018-05-12T12:58:06.840Z,155
2018-05-12T12:59:08.242Z,140
2018-05-12T13:00:09.666Z,125
2018-05-12T13:01:11.046Z,110
2018-05-12T13:02:12.438Z,105
2018-05-12T13:03:13.847Z,100
2018-05-12T13:04:15.254Z,100
2018-05-12T13:05:16.651Z,105
2018-05-12T13:06:18.041Z,100
2018-05-12T13:07:19.442Z,110
2018-05-12T13:08:20.847Z,120
2018-05-12T13:09:22.248Z,125
2018-05-12T13:10:23.641Z,140
2018-05-12T13:11:25.048Z,160
2018-05-12T13:12:26.450Z,175
2018-05-12T13:13:27.849Z,150
2018-05-12T13:14:29.244Z,130
2018-05-12T13:15:30.635Z,115
2018-05-12T13:16:32.056Z,115
2018-05-12T13:17:33.447Z,120
2018-05-12T13:18:34.838Z,120
2018-05-12T13:19:36.289Z,115
2018-05-12T13:20:37.643Z,115
2018-05-12T13:21:39.079Z,110
2018-05-12T13:22:40.436Z,100
2018-05-12T13:23:41.837Z,90
2018-05-12T13:24:43.227Z,90
2018-05-12T13:25:44.625Z,90
2018-05-12T13:26:46.022Z,95
2018-05-12T13:27:48.257Z,105
2018-05-12T13:28:49.667Z,115
2018-05-12T13:29:51.047Z,125
2018-05-12T13:30:52.445Z,130
2018-05-12T13:31:53.853Z,135
2018-05-12T13:32:55.248Z,135
2018-05-12T13:33:56.645Z,135
2018-05-12T13:34:58.045Z,135
2018-05-12T13:35:59.498Z,140
2018-05-12T13:37:00.988Z,135
2018-05-12T13:38:02.378Z,135
2018-05-12T13:39:03.786Z,105
2018-05-12T13:40:05.174Z,85
2018-05-12T13:41:06.576Z,80
2018-05-12T13:42:07.980Z,75
2018-05-12T13:43:09.391Z,80
2018-05-12T13:44:10.778Z,90
2018-05-12T13:45:12.180Z,105
2018-05-12T13:46:13.587Z,115
2018-05-12T13:47:14.981Z,115
2018-05-12T13:48:16.389Z,115
2018-05-12T13:49:17.778Z,120
2018-05-12T13:50:19.178Z,145
2018-05-12T13:51:20.582Z,145
2018-05-12T13:52:21.976Z,145
2018-05-12T13:53:23.375Z,120
2018-05-12T13:54:24.773Z,90
2018-05-12T13:55:26.165Z,85
2018-05-12T13:56:27.562Z,80
2018-05-12T13:57:28.957Z,90
2018-05-12T13:58:30.357Z,95
2018-05-12T13:59:31.754Z,95
2018-05-12T14:00:33.156Z,100
2018-05-12T14:01:34.543Z,100
2018-05-12T14:02:35.948Z,105
2018-05-12T14:03:37.344Z,115
2018-05-12T14:04:38.734Z,120
2018-05-12T14:05:40.146Z,110
2018-05-12T14:06:41.538Z,95
2018-05-12T14:07:42.952Z,80
2018-05-12T14:08:44.353Z,80
2018-05-12T14:09:45.774Z,80
2018-05-12T14:10:47.197Z,85
2018-05-12T14:11:48.587Z,90
2018-05-12T14:12:50.017Z,95
2018-05-12T14:13:51.383Z,95
2018-05-12T14:14:52.770Z,90
2018-05-12T14:15:54.162Z,90
2018-05-12T14:16:55.564Z,90
2018-05-12T14:17:56.959Z,90
2018-05-12T14:18:58.408Z,95
2018-05-12T14:19:59.755Z,95
2018-05-12T14:21:01.166Z,100
2018-05-12T14:22:02.569Z,100
2018-05-12T14:23:03.974Z,100
2018-05-12T14:24:05.357Z,95
2018-05-12T14:25:07.666Z,90
2018-05-12T14:26:09.061Z,90
2018-05-12T14:27:10.453Z,90
2018-05-12T14:28:11.862Z,90